Time;durP1;ratioP1;P1;durP2;ratioP2;P2;SDS_P1;SDS_P2;PMS_P1;PMS_P2;Temp;Humidity;BMP_temperature;BMP_pressure;BME280_temperature;BME280_humidity;BME280_pressure;Samples;Min_cycle;Max_cycle;Signal;HPM_P1;HPM_P2
2022/06/27 00:01:29;;;;;;;;;;;17.50;99.90;;;;;;5035888;28;19921;-75
2022/06/27 00:03:55;;;;;;;;;;;17.50;99.90;;;;;;5035746;28;19966;-75
2022/06/27 00:06:20;;;;;;;;;;;17.50;99.90;;;;;;5050560;28;19920;-75
2022/06/27 00:08:47;;;;;;;;;;;17.50;99.90;;;;;;5072367;28;19971;-75
2022/06/27 00:11:12;;;;;;;;;;;17.50;99.90;;;;;;5055479;28;19932;-75
2022/06/27 00:13:38;;;;;;;;;;;17.50;99.90;;;;;;5054852;28;19920;-76
2022/06/27 00:16:03;;;;;;;;;;;17.50;99.90;;;;;;5055745;28;20368;-76
2022/06/27 00:18:29;;;;;;;;;;;17.50;99.90;;;;;;5088583;28;19920;-75
2022/06/27 00:20:54;;;;;;;;;;;17.50;99.90;;;;;;5055298;28;20381;-76
2022/06/27 00:23:20;;;;;;;;;;;17.50;99.90;;;;;;5038192;28;19927;-76
2022/06/27 00:25:45;;;;;;;;;;;17.50;99.90;;;;;;5071231;28;19925;-75
2022/06/27 00:28:11;;;;;;;;;;;17.50;99.90;;;;;;5037115;28;19921;-76
2022/06/27 00:30:36;;;;;;;;;;;17.50;99.90;;;;;;5054623;28;20001;-77
2022/06/27 00:33:02;;;;;;;;;;;17.50;99.90;;;;;;5039027;28;19924;-77
2022/06/27 00:35:27;;;;;;;;;;;17.50;99.90;;;;;;5055656;28;20377;-76
2022/06/27 00:37:53;;;;;;;;;;;17.50;99.90;;;;;;5054419;28;20381;-75
2022/06/27 00:40:18;;;;;;;;;;;17.50;99.90;;;;;;5088760;28;19931;-74
2022/06/27 00:42:44;;;;;;;;;;;17.40;99.90;;;;;;5054812;28;19989;-76
2022/06/27 00:45:09;;;;;;;;;;;17.40;99.90;;;;;;5038332;28;20445;-78
2022/06/27 00:47:35;;;;;;;;;;;17.40;99.90;;;;;;5031055;28;19920;-78
2022/06/27 00:50:01;;;;;;;;;;;17.40;99.90;;;;;;5057592;28;19928;-78
2022/06/27 00:52:27;;;;;;;;;;;17.40;99.90;;;;;;5043574;28;19920;-77
2022/06/27 00:54:52;;;;;;;;;;;17.40;99.90;;;;;;5052239;28;19924;-78
2022/06/27 00:57:18;;;;;;;;;;;17.40;99.90;;;;;;5055493;28;19921;-78
2022/06/27 00:59:44;;;;;;;;;;;17.40;99.90;;;;;;5056562;28;19925;-78
2022/06/27 01:02:09;;;;;;;;;;;17.50;99.90;;;;;;5054593;28;19920;-78
2022/06/27 01:04:36;;;;;;;;;;;17.50;99.90;;;;;;5041149;28;19969;-79
2022/06/27 01:07:01;;;;;;;;;;;17.50;99.90;;;;;;5058721;28;19971;-80
2022/06/27 01:09:27;;;;;;;;;;;17.50;99.90;;;;;;5042397;28;19990;-79
2022/06/27 01:11:52;;;;;;;;;;;17.50;99.90;;;;;;5039699;28;19932;-81
2022/06/27 01:14:19;;;;;;;;;;;17.50;99.90;;;;;;5058877;28;19921;-80
2022/06/27 01:16:45;;;;;;;;;;;17.50;99.90;;;;;;5074535;28;19924;-78
2022/06/27 01:19:11;;;;;;;;;;;17.40;99.90;;;;;;5057628;28;19924;-79
2022/06/27 01:21:46;;;;;;;;;;;17.40;99.90;;;;;;5074035;28;20015;-77
2022/06/27 01:24:11;;;;;;;;;;;17.40;99.90;;;;;;5091322;28;19943;-80
2022/06/27 01:26:37;;;;;;;;;;;17.50;99.90;;;;;;5042112;28;20372;-80
2022/06/27 01:29:03;;;;;;;;;;;17.50;99.90;;;;;;5057524;28;19932;-79
2022/06/27 01:31:29;;;;;;;;;;;17.50;99.90;;;;;;5057358;28;20335;-78
2022/06/27 01:33:54;;;;;;;;;;;17.50;99.90;;;;;;5058264;28;20008;-79
2022/06/27 01:39:04;;;;;;;;;;;17.60;99.90;;;;;;5090867;28;19932;-78
2022/06/27 01:41:30;;;;;;;;;;;17.50;99.90;;;;;;5041009;28;19924;-79
2022/06/27 01:43:56;;;;;;;;;;;17.50;99.90;;;;;;5058545;28;19974;-77
2022/06/27 01:46:21;;;;;;;;;;;17.50;99.90;;;;;;5055640;28;19920;-77
2022/06/27 01:48:47;;;;;;;;;;;17.50;99.90;;;;;;5041671;28;19920;-77
2022/06/27 01:51:12;;;;;;;;;;;17.50;99.90;;;;;;5055777;28;20023;-80
2022/06/27 01:53:38;;;;;;;;;;;17.40;99.90;;;;;;5057759;28;19921;-80
2022/06/27 01:56:04;;;;;;;;;;;17.40;99.90;;;;;;5055053;28;19925;-80
2022/06/27 01:58:29;;;;;;;;;;;17.50;99.90;;;;;;5041171;28;19959;-79
2022/06/27 02:00:55;;;;;;;;;;;17.50;99.90;;;;;;5051510;28;19931;-79
2022/06/27 02:03:23;;;;;;;;;;;17.50;99.90;;;;;;5111850;28;19920;-78
2022/06/27 02:05:49;;;;;;;;;;;17.50;99.90;;;;;;5044431;28;19920;-78
2022/06/27 02:08:15;;;;;;;;;;;17.50;99.90;;;;;;5055581;28;19928;-78
2022/06/27 02:10:40;;;;;;;;;;;17.60;99.90;;;;;;5056300;28;19965;-78
2022/06/27 02:13:06;;;;;;;;;;;17.50;99.90;;;;;;5038491;28;19920;-78
2022/06/27 02:15:32;;;;;;;;;;;17.50;99.90;;;;;;5054326;28;19986;-77
2022/06/27 02:17:57;;;;;;;;;;;17.50;99.90;;;;;;5086820;28;19930;-78
2022/06/27 02:20:23;;;;;;;;;;;17.60;99.90;;;;;;5081823;28;19936;-79
2022/06/27 02:22:49;;;;;;;;;;;17.60;99.90;;;;;;5088568;28;20388;-77
2022/06/27 02:25:14;;;;;;;;;;;17.50;99.90;;;;;;5056231;28;19920;-78
2022/06/27 02:27:41;;;;;;;;;;;17.50;99.90;;;;;;5056295;28;20058;-77
2022/06/27 02:30:06;;;;;;;;;;;17.40;99.90;;;;;;5056383;28;19921;-77
2022/06/27 02:32:32;;;;;;;;;;;17.30;99.90;;;;;;5055665;28;19947;-77
2022/06/27 02:34:58;;;;;;;;;;;17.40;99.90;;;;;;5073041;28;19959;-77
2022/06/27 02:37:23;;;;;;;;;;;17.30;99.90;;;;;;5055810;28;19987;-76
2022/06/27 02:39:49;;;;;;;;;;;17.40;99.90;;;;;;5088855;28;20393;-76
2022/06/27 02:42:17;;;;;;;;;;;17.40;99.90;;;;;;5057459;28;20042;-76
2022/06/27 02:44:43;;;;;;;;;;;17.30;99.90;;;;;;5055127;28;19982;-76
2022/06/27 02:47:08;;;;;;;;;;;17.40;99.90;;;;;;5038610;28;20408;-76
2022/06/27 02:49:34;;;;;;;;;;;17.40;99.90;;;;;;5051461;28;20003;-77
2022/06/27 02:52:07;;;;;;;;;;;17.40;99.90;;;;;;5063526;28;19928;-76
2022/06/27 02:54:41;;;;;;;;;;;17.30;99.90;;;;;;5038773;28;19975;-77
2022/06/27 02:57:12;;;;;;;;;;;17.30;99.90;;;;;;5060719;28;19927;-76
2022/06/27 02:59:41;;;;;;;;;;;17.20;99.90;;;;;;5073761;28;19967;-77
2022/06/27 03:02:08;;;;;;;;;;;17.20;99.90;;;;;;5037490;28;19921;-76
2022/06/27 03:04:33;;;;;;;;;;;17.20;99.90;;;;;;5040050;28;19925;-75
2022/06/27 03:06:58;;;;;;;;;;;17.10;99.90;;;;;;5040846;28;20363;-76
2022/06/27 03:09:24;;;;;;;;;;;17.10;99.90;;;;;;5052655;28;19977;-77
2022/06/27 03:11:49;;;;;;;;;;;17.10;99.90;;;;;;5064490;28;19955;-77
2022/06/27 03:14:15;;;;;;;;;;;17.10;99.90;;;;;;5088969;28;19920;-76
2022/06/27 03:16:40;;;;;;;;;;;17.10;99.90;;;;;;5038432;28;20304;-76
2022/06/27 03:19:06;;;;;;;;;;;17.00;99.90;;;;;;5053862;28;19928;-76
2022/06/27 03:21:32;;;;;;;;;;;17.00;99.90;;;;;;5055310;28;20296;-77
2022/06/27 03:23:57;;;;;;;;;;;17.00;99.90;;;;;;5073077;28;19928;-76
2022/06/27 03:26:23;;;;;;;;;;;17.00;99.90;;;;;;5055176;28;19924;-76
2022/06/27 03:28:48;;;;;;;;;;;17.00;99.90;;;;;;5087082;28;19943;-77
2022/06/27 03:31:15;;;;;;;;;;;17.00;99.90;;;;;;5054005;28;19920;-76
2022/06/27 03:33:40;;;;;;;;;;;16.90;99.90;;;;;;5039685;28;19928;-76
2022/06/27 03:36:06;;;;;;;;;;;16.90;99.90;;;;;;5054938;28;19921;-76
2022/06/27 03:38:32;;;;;;;;;;;17.00;99.90;;;;;;5054598;28;20380;-76
2022/06/27 03:40:58;;;;;;;;;;;17.00;99.90;;;;;;5037074;28;19931;-77
2022/06/27 03:43:23;;;;;;;;;;;17.00;99.90;;;;;;5020498;28;19920;-76
2022/06/27 03:45:49;;;;;;;;;;;16.90;99.90;;;;;;5059548;28;20011;-76
2022/06/27 03:50:00;;;;;;;;;;;17.00;99.90;;;;;;5054751;28;19927;-75
2022/06/27 03:51:00;;;;;;;;;;;17.10;99.90;;;;;;5087220;28;19936;-77
2022/06/27 03:53:26;;;;;;;;;;;17.10;99.90;;;;;;5039291;28;20012;-76
2022/06/27 03:55:51;;;;;;;;;;;17.20;99.90;;;;;;5053100;28;19964;-76
2022/06/27 03:58:17;;;;;;;;;;;17.20;99.90;;;;;;5054699;28;19962;-76
2022/06/27 04:00:42;;;;;;;;;;;17.30;99.90;;;;;;5087724;28;19932;-76
2022/06/27 04:03:08;;;;;;;;;;;17.20;99.90;;;;;;5039306;28;20311;-76
2022/06/27 04:05:34;;;;;;;;;;;17.20;99.90;;;;;;5071460;28;19924;-76
2022/06/27 04:08:00;;;;;;;;;;;17.20;99.90;;;;;;5034516;28;20392;-76
2022/06/27 04:10:25;;;;;;;;;;;17.20;99.90;;;;;;5085505;28;20407;-76
2022/06/27 04:12:51;;;;;;;;;;;17.20;99.90;;;;;;5038013;28;19963;-76
2022/06/27 04:15:16;;;;;;;;;;;17.10;99.90;;;;;;5089088;28;19920;-76
2022/06/27 04:17:42;;;;;;;;;;;17.00;99.90;;;;;;5037300;28;19920;-76
2022/06/27 04:20:08;;;;;;;;;;;17.00;99.90;;;;;;5084753;28;19960;-76
2022/06/27 04:22:33;;;;;;;;;;;17.00;99.90;;;;;;5060568;28;19975;-76
2022/06/27 04:24:59;;;;;;;;;;;17.00;99.90;;;;;;5025813;28;19921;-76
2022/06/27 04:27:26;;;;;;;;;;;17.00;99.90;;;;;;5051680;28;20133;-76
2022/06/27 04:29:52;;;;;;;;;;;17.10;99.90;;;;;;5057783;28;19927;-75
2022/06/27 04:32:19;;;;;;;;;;;17.20;99.90;;;;;;5041659;28;20296;-76
2022/06/27 04:34:44;;;;;;;;;;;17.00;99.90;;;;;;5052174;28;19927;-76
2022/06/27 04:37:10;;;;;;;;;;;17.00;99.90;;;;;;5071484;28;20346;-76
2022/06/27 04:39:36;;;;;;;;;;;17.00;99.90;;;;;;5041204;28;19924;-75
2022/06/27 04:42:01;;;;;;;;;;;16.90;99.90;;;;;;5057645;28;19921;-76
2022/06/27 04:44:27;;;;;;;;;;;16.90;99.90;;;;;;5058707;28;20384;-76
2022/06/27 04:46:52;;;;;;;;;;;16.80;99.90;;;;;;5052660;28;19924;-76
2022/06/27 04:49:19;;;;;;;;;;;16.80;99.90;;;;;;5074864;28;19920;-76
2022/06/27 04:51:44;;;;;;;;;;;16.70;99.90;;;;;;5057300;28;19920;-76
2022/06/27 04:54:10;;;;;;;;;;;16.80;99.90;;;;;;5090460;28;20420;-77
2022/06/27 04:56:42;;;;;;;;;;;16.70;99.90;;;;;;5058174;28;19921;-76
2022/06/27 04:59:08;;;;;;;;;;;16.80;99.90;;;;;;5057219;28;19920;-75
2022/06/27 05:01:34;;;;;;;;;;;16.70;99.90;;;;;;5087705;28;19921;-76
2022/06/27 05:03:59;;;;;;;;;;;16.70;99.90;;;;;;5058520;28;20289;-76
2022/06/27 05:06:25;;;;;;;;;;;16.70;99.90;;;;;;5041340;28;19924;-76
2022/06/27 05:08:50;;;;;;;;;;;16.60;99.90;;;;;;5056021;28;19921;-76
2022/06/27 05:11:16;;;;;;;;;;;16.60;99.90;;;;;;5047886;28;20490;-76
2022/06/27 05:13:42;;;;;;;;;;;16.60;99.90;;;;;;5052494;28;19920;-76
2022/06/27 05:16:07;;;;;;;;;;;16.60;99.90;;;;;;5064032;28;19973;-76
2022/06/27 05:18:33;;;;;;;;;;;16.50;99.90;;;;;;5039316;28;19929;-76
2022/06/27 05:20:58;;;;;;;;;;;16.60;99.90;;;;;;5055757;28;20011;-76
2022/06/27 05:23:24;;;;;;;;;;;16.60;99.90;;;;;;5081577;28;19924;-76
2022/06/27 05:25:49;;;;;;;;;;;16.60;99.90;;;;;;5083655;28;19920;-76
2022/06/27 05:28:15;;;;;;;;;;;16.60;99.90;;;;;;5073973;28;19986;-76
2022/06/27 05:30:40;;;;;;;;;;;16.60;99.90;;;;;;5055113;28;20280;-76
2022/06/27 05:33:06;;;;;;;;;;;16.70;99.90;;;;;;5058376;28;19966;-76
2022/06/27 05:35:32;;;;;;;;;;;16.70;99.90;;;;;;5055223;28;20011;-76
2022/06/27 05:37:59;;;;;;;;;;;16.60;99.90;;;;;;5066724;28;19931;-76
2022/06/27 05:40:25;;;;;;;;;;;16.60;99.90;;;;;;5080858;28;19931;-76
2022/06/27 05:42:50;;;;;;;;;;;16.70;99.90;;;;;;5088494;28;19928;-76
2022/06/27 05:45:16;;;;;;;;;;;16.80;99.90;;;;;;5073698;28;19920;-76
2022/06/27 05:47:43;;;;;;;;;;;16.80;99.90;;;;;;5058207;28;19927;-76
2022/06/27 05:50:09;;;;;;;;;;;16.80;99.90;;;;;;5052134;28;19920;-76
2022/06/27 05:52:35;;;;;;;;;;;16.90;99.90;;;;;;5074025;28;19963;-76
2022/06/27 05:55:01;;;;;;;;;;;16.90;99.90;;;;;;5057806;28;20412;-76
2022/06/27 05:57:28;;;;;;;;;;;17.00;99.90;;;;;;5038689;28;20393;-76
2022/06/27 05:59:55;;;;;;;;;;;17.00;99.90;;;;;;5046414;28;19976;-76
2022/06/27 06:02:21;;;;;;;;;;;17.00;99.90;;;;;;5085129;28;19960;-76
2022/06/27 06:04:48;;;;;;;;;;;17.10;99.90;;;;;;5041051;28;19920;-75
2022/06/27 06:07:14;;;;;;;;;;;17.20;99.90;;;;;;5046279;28;19921;-76
2022/06/27 06:09:41;;;;;;;;;;;17.20;99.90;;;;;;5048378;28;19928;-77
2022/06/27 06:12:08;;;;;;;;;;;17.20;99.90;;;;;;5050736;28;19921;-77
2022/06/27 06:14:34;;;;;;;;;;;17.20;99.90;;;;;;5061282;28;19928;-76
2022/06/27 06:16:59;;;;;;;;;;;17.20;99.90;;;;;;5056700;28;19920;-76
2022/06/27 06:19:25;;;;;;;;;;;17.30;99.90;;;;;;5073576;28;20019;-76
2022/06/27 06:21:50;;;;;;;;;;;17.30;99.90;;;;;;5089577;28;19921;-76
2022/06/27 06:24:16;;;;;;;;;;;17.30;99.90;;;;;;5037734;28;19936;-76
2022/06/27 06:26:41;;;;;;;;;;;17.30;99.90;;;;;;5039471;28;20292;-77
2022/06/27 06:29:14;;;;;;;;;;;17.30;99.90;;;;;;5090150;28;19920;-76
2022/06/27 06:31:41;;;;;;;;;;;17.40;99.90;;;;;;5066413;28;19975;-77
2022/06/27 06:34:07;;;;;;;;;;;17.30;99.90;;;;;;5055047;28;19920;-75
2022/06/27 06:36:33;;;;;;;;;;;17.30;99.90;;;;;;5054889;28;19929;-75
2022/06/27 06:39:01;;;;;;;;;;;17.40;99.90;;;;;;5090009;28;19927;-75
2022/06/27 06:41:26;;;;;;;;;;;17.30;99.90;;;;;;5073031;28;20392;-75
2022/06/27 06:43:52;;;;;;;;;;;17.30;99.90;;;;;;5030091;28;19997;-75
2022/06/27 06:46:18;;;;;;;;;;;17.40;99.90;;;;;;5054380;28;19975;-75
2022/06/27 06:48:43;;;;;;;;;;;17.40;99.90;;;;;;5064017;28;19925;-75
2022/06/27 06:51:09;;;;;;;;;;;17.30;99.90;;;;;;5064874;28;19924;-68
2022/06/27 06:53:37;;;;;;;;;;;17.40;99.90;;;;;;5055021;28;19921;-77
2022/06/27 06:56:05;;;;;;;;;;;17.40;99.90;;;;;;5073058;28;19994;-68
2022/06/27 06:58:30;;;;;;;;;;;17.50;99.90;;;;;;5053863;28;19924;-68
2022/06/27 07:00:57;;;;;;;;;;;17.50;99.90;;;;;;5053558;28;19924;-68
2022/06/27 07:03:23;;;;;;;;;;;17.50;99.90;;;;;;5053544;28;19928;-68
2022/06/27 07:05:49;;;;;;;;;;;17.50;99.90;;;;;;5089324;28;19989;-68
2022/06/27 07:08:15;;;;;;;;;;;17.50;99.90;;;;;;5056078;28;19920;-76
2022/06/27 07:10:41;;;;;;;;;;;17.50;99.90;;;;;;5087983;28;19974;-69
2022/06/27 07:13:07;;;;;;;;;;;17.50;99.90;;;;;;5055245;28;20270;-68
2022/06/27 07:15:33;;;;;;;;;;;17.50;99.90;;;;;;5038420;28;19931;-76
2022/06/27 07:18:00;;;;;;;;;;;17.50;99.90;;;;;;5046439;28;19920;-76
2022/06/27 07:20:26;;;;;;;;;;;17.50;99.90;;;;;;5055005;28;19924;-76
2022/06/27 07:22:52;;;;;;;;;;;17.60;99.90;;;;;;5034984;28;20381;-76
2022/06/27 07:25:18;;;;;;;;;;;17.60;99.90;;;;;;5053440;28;19943;-76
2022/06/27 07:27:44;;;;;;;;;;;17.60;99.90;;;;;;5046852;28;20045;-76
2022/06/27 07:30:10;;;;;;;;;;;17.50;99.90;;;;;;5075552;28;19998;-76
2022/06/27 07:32:36;;;;;;;;;;;17.50;99.90;;;;;;5057122;28;19924;-76
2022/06/27 07:35:03;;;;;;;;;;;17.50;99.90;;;;;;5037904;28;20077;-76
2022/06/27 07:37:29;;;;;;;;;;;17.50;99.90;;;;;;5048751;28;20297;-76
2022/06/27 07:39:54;;;;;;;;;;;17.50;99.90;;;;;;5040968;28;19925;-76
2022/06/27 07:42:20;;;;;;;;;;;17.50;99.90;;;;;;5085104;28;20016;-76
2022/06/27 07:44:46;;;;;;;;;;;17.40;99.90;;;;;;5051125;28;19927;-76
2022/06/27 07:47:11;;;;;;;;;;;17.40;99.90;;;;;;5077248;28;19925;-76
2022/06/27 07:49:38;;;;;;;;;;;17.40;99.90;;;;;;5042510;28;19921;-76
2022/06/27 07:52:03;;;;;;;;;;;17.40;99.90;;;;;;5067233;28;20381;-76
2022/06/27 07:54:29;;;;;;;;;;;17.40;99.90;;;;;;5047277;28;19975;-76
2022/06/27 07:56:55;;;;;;;;;;;17.40;99.90;;;;;;5034177;28;19921;-76
2022/06/27 07:59:21;;;;;;;;;;;17.40;99.90;;;;;;5049060;28;19925;-76
2022/06/27 08:01:46;;;;;;;;;;;17.40;99.90;;;;;;5067532;28;19921;-76
2022/06/27 08:04:14;;;;;;;;;;;17.40;99.90;;;;;;5049701;28;20015;-76
2022/06/27 08:06:41;;;;;;;;;;;17.50;99.90;;;;;;5049813;28;19924;-76
2022/06/27 08:09:07;;;;;;;;;;;17.50;99.90;;;;;;5033709;28;19921;-76
2022/06/27 08:11:34;;;;;;;;;;;17.50;99.90;;;;;;5082435;28;20012;-76
2022/06/27 08:14:03;;;;;;;;;;;17.50;99.90;;;;;;5033303;28;19920;-76
2022/06/27 08:16:29;;;;;;;;;;;17.60;99.90;;;;;;5067576;28;20281;-76
2022/06/27 08:18:55;;;;;;;;;;;17.60;99.90;;;;;;5069109;28;19927;-76
2022/06/27 08:21:25;;;;;;;;;;;17.60;99.90;;;;;;5050964;28;19925;-76
2022/06/27 08:23:56;;;;;;;;;;;17.60;99.90;;;;;;5071112;28;19921;-76
2022/06/27 08:26:23;;;;;;;;;;;17.70;99.90;;;;;;5051419;28;19921;-76
2022/06/27 08:28:49;;;;;;;;;;;17.70;99.90;;;;;;5047306;28;19929;-76
2022/06/27 08:31:14;;;;;;;;;;;17.80;99.90;;;;;;5034731;28;20284;-76
2022/06/27 08:33:41;;;;;;;;;;;17.70;99.90;;;;;;5051437;28;19928;-76
2022/06/27 08:36:07;;;;;;;;;;;17.80;99.90;;;;;;5037062;28;19924;-76
2022/06/27 08:38:39;;;;;;;;;;;17.80;99.90;;;;;;5051104;28;19924;-76
2022/06/27 08:41:04;;;;;;;;;;;17.80;99.90;;;;;;5053718;28;19924;-76
2022/06/27 08:43:30;;;;;;;;;;;17.80;99.90;;;;;;5052600;28;19928;-77
2022/06/27 08:45:57;;;;;;;;;;;17.80;99.90;;;;;;5085667;28;20011;-76
2022/06/27 08:48:23;;;;;;;;;;;17.80;99.90;;;;;;5038091;28;20471;-76
2022/06/27 08:50:50;;;;;;;;;;;17.90;99.90;;;;;;5035137;28;20015;-76
2022/06/27 08:53:17;;;;;;;;;;;17.90;99.90;;;;;;5052435;28;19921;-76
2022/06/27 08:55:44;;;;;;;;;;;17.90;99.90;;;;;;5037071;28;20702;-77
2022/06/27 08:58:10;;;;;;;;;;;17.90;99.90;;;;;;5055029;28;19921;-76
2022/06/27 09:00:40;;;;;;;;;;;18.00;99.90;;;;;;5062467;28;19977;-77
2022/06/27 09:03:10;;;;;;;;;;;17.90;99.90;;;;;;5045989;28;19921;-77
2022/06/27 09:05:36;;;;;;;;;;;17.90;99.90;;;;;;5024796;28;20407;-77
2022/06/27 09:08:05;;;;;;;;;;;17.90;99.90;;;;;;5058206;28;19960;-77
2022/06/27 09:10:32;;;;;;;;;;;18.00;99.90;;;;;;5047549;28;19921;-77
2022/06/27 09:13:03;;;;;;;;;;;18.00;99.90;;;;;;5049981;28;20011;-77
2022/06/27 09:15:46;;;;;;;;;;;18.00;99.90;;;;;;5052877;28;19920;-77
2022/06/27 09:18:13;;;;;;;;;;;18.10;99.90;;;;;;5058268;28;19986;-77
2022/06/27 09:20:49;;;;;;;;;;;18.10;99.90;;;;;;5049906;28;20292;-77
2022/06/27 09:23:53;;;;;;;;;;;18.10;99.90;;;;;;5058074;28;19927;-77
2022/06/27 09:26:19;;;;;;;;;;;18.10;99.90;;;;;;5074301;28;19934;-76
2022/06/27 09:28:50;;;;;;;;;;;18.20;99.90;;;;;;5074003;28;19952;-76
2022/06/27 09:31:30;;;;;;;;;;;18.20;99.90;;;;;;5037192;28;19920;-76
2022/06/27 09:34:02;;;;;;;;;;;18.20;99.90;;;;;;5049879;28;20396;-77
2022/06/27 09:36:29;;;;;;;;;;;18.20;99.90;;;;;;5037666;28;19931;-78
2022/06/27 09:38:55;;;;;;;;;;;18.10;99.90;;;;;;5071891;28;19920;-77
2022/06/27 09:41:25;;;;;;;;;;;18.10;99.90;;;;;;5065718;28;19925;-76
2022/06/27 09:43:51;;;;;;;;;;;18.10;99.90;;;;;;5070814;28;20280;-76
2022/06/27 09:46:18;;;;;;;;;;;18.10;99.90;;;;;;5056509;28;19921;-77
2022/06/27 09:48:44;;;;;;;;;;;18.20;99.90;;;;;;5050970;28;19931;-77
2022/06/27 09:51:15;;;;;;;;;;;18.10;99.90;;;;;;5042086;28;19921;-77
2022/06/27 09:53:44;;;;;;;;;;;18.10;99.90;;;;;;5038804;28;19964;-70
2022/06/27 09:56:10;;;;;;;;;;;18.20;99.90;;;;;;5057157;28;19962;-70
2022/06/27 09:58:37;;;;;;;;;;;18.20;99.90;;;;;;5040880;28;19920;-69
2022/06/27 10:01:04;;;;;;;;;;;18.20;99.90;;;;;;5057905;28;19997;-78
2022/06/27 10:03:31;;;;;;;;;;;18.20;99.90;;;;;;5040809;28;20296;-78
2022/06/27 10:05:58;;;;;;;;;;;18.30;99.90;;;;;;5063627;28;20030;-78
2022/06/27 10:08:23;;;;;;;;;;;18.30;99.90;;;;;;5056936;28;19999;-78
2022/06/27 10:11:04;;;;;;;;;;;18.30;99.90;;;;;;5048723;28;19927;-78
2022/06/27 10:13:30;;;;;;;;;;;18.30;99.90;;;;;;5050217;28;19928;-77
2022/06/27 10:15:57;;;;;;;;;;;18.30;99.90;;;;;;5057360;28;19920;-77
2022/06/27 10:18:22;;;;;;;;;;;18.30;99.90;;;;;;5046440;28;19985;-77
2022/06/27 10:20:51;;;;;;;;;;;18.50;99.90;;;;;;5057318;28;20453;-77
2022/06/27 10:23:26;;;;;;;;;;;18.60;99.90;;;;;;5053670;28;19990;-77
2022/06/27 10:25:53;;;;;;;;;;;18.50;99.90;;;;;;5071084;28;20369;-77
2022/06/27 10:28:20;;;;;;;;;;;18.60;99.90;;;;;;5039320;28;19928;-78
2022/06/27 10:30:53;;;;;;;;;;;18.60;99.90;;;;;;5042554;28;20297;-78
2022/06/27 10:33:19;;;;;;;;;;;18.60;99.90;;;;;;5081752;28;19920;-77
2022/06/27 10:35:57;;;;;;;;;;;18.60;99.90;;;;;;5066110;28;20147;-77
2022/06/27 10:38:24;;;;;;;;;;;18.60;99.90;;;;;;5070542;28;20018;-77
2022/06/27 10:40:50;;;;;;;;;;;18.60;99.90;;;;;;5054603;28;19924;-78
2022/06/27 10:43:34;;;;;;;;;;;18.60;99.90;;;;;;5053032;28;20311;-78
2022/06/27 10:46:00;;;;;;;;;;;18.70;99.90;;;;;;5050275;28;20288;-78
2022/06/27 10:48:35;;;;;;;;;;;18.70;99.90;;;;;;5059249;28;19927;-78
2022/06/27 10:51:16;;;;;;;;;;;18.80;99.90;;;;;;5050498;28;20384;-78
2022/06/27 10:53:42;;;;;;;;;;;18.80;99.90;;;;;;5061318;28;19943;-78
2022/06/27 10:56:27;;;;;;;;;;;18.80;99.90;;;;;;5058101;28;19921;-78
2022/06/27 10:58:53;;;;;;;;;;;18.80;99.90;;;;;;5071311;28;19920;-79
2022/06/27 11:01:19;;;;;;;;;;;18.80;99.90;;;;;;5045651;28;19931;-79
2022/06/27 11:03:44;;;;;;;;;;;18.90;99.90;;;;;;5055903;28;19921;-79
2022/06/27 11:06:13;;;;;;;;;;;19.00;99.90;;;;;;5053456;28;19928;-78
2022/06/27 11:08:40;;;;;;;;;;;19.00;99.90;;;;;;5060840;28;19921;-78
2022/06/27 11:11:06;;;;;;;;;;;19.10;99.90;;;;;;5033447;28;19928;-77
2022/06/27 11:13:34;;;;;;;;;;;19.10;99.90;;;;;;5046922;28;19921;-77
2022/06/27 11:16:00;;;;;;;;;;;19.00;99.90;;;;;;5058701;28;19927;-78
2022/06/27 11:18:25;;;;;;;;;;;19.00;99.90;;;;;;5035822;28;19920;-77
2022/06/27 11:20:55;;;;;;;;;;;19.00;99.90;;;;;;5047471;28;19924;-78
2022/06/27 11:23:21;;;;;;;;;;;19.00;99.90;;;;;;5088490;28;19928;-77
2022/06/27 11:25:47;;;;;;;;;;;19.00;99.90;;;;;;5071857;28;20393;-77
2022/06/27 11:33:46;;;;;;;;;;;19.00;99.90;;;;;;5051654;28;19924;-78
2022/06/27 11:36:13;;;;;;;;;;;19.10;99.90;;;;;;5022909;28;19964;-78
2022/06/27 11:38:48;;;;;;;;;;;19.00;99.90;;;;;;5081138;28;19956;-78
2022/06/27 11:41:14;;;;;;;;;;;19.00;99.90;;;;;;5032857;28;19990;-78
2022/06/27 11:43:49;;;;;;;;;;;18.90;99.90;;;;;;5054878;28;19963;-78
2022/06/27 11:46:45;;;;;;;;;;;18.90;99.90;;;;;;5034235;28;19951;-78
2022/06/27 11:49:12;;;;;;;;;;;18.90;99.90;;;;;;5040083;28;19927;-78
2022/06/27 11:51:41;;;;;;;;;;;18.90;99.90;;;;;;5069668;28;20398;-78
2022/06/27 11:54:09;;;;;;;;;;;18.90;99.90;;;;;;5050453;28;20014;-78
2022/06/27 11:56:37;;;;;;;;;;;18.90;99.90;;;;;;5054977;28;20433;-78
2022/06/27 11:59:03;;;;;;;;;;;18.90;99.90;;;;;;5061199;28;19921;-69
2022/06/27 12:01:28;;;;;;;;;;;18.90;99.90;;;;;;5054764;28;19990;-77
2022/06/27 12:04:09;;;;;;;;;;;18.80;99.90;;;;;;5024638;28;20003;-74
2022/06/27 12:06:41;;;;;;;;;;;18.80;99.90;;;;;;5058345;28;20362;-78
2022/06/27 12:09:07;;;;;;;;;;;18.80;99.90;;;;;;5087044;28;19921;-79
2022/06/27 12:11:34;;;;;;;;;;;18.80;99.90;;;;;;5049187;28;20015;-79
2022/06/27 12:14:00;;;;;;;;;;;18.80;99.90;;;;;;5035148;28;19921;-79
2022/06/27 12:16:26;;;;;;;;;;;18.90;99.90;;;;;;5032374;28;20395;-78
2022/06/27 12:18:52;;;;;;;;;;;18.90;99.90;;;;;;5037613;28;19921;-79
2022/06/27 12:21:18;;;;;;;;;;;18.90;99.90;;;;;;5054870;28;20463;-77
2022/06/27 12:23:44;;;;;;;;;;;18.90;99.90;;;;;;5038318;28;19920;-77
2022/06/27 12:26:10;;;;;;;;;;;18.90;99.90;;;;;;5054098;28;19920;-77
2022/06/27 12:28:36;;;;;;;;;;;18.90;99.90;;;;;;5056874;28;19920;-77
2022/06/27 12:31:01;;;;;;;;;;;18.90;99.90;;;;;;5045119;28;19921;-78
2022/06/27 12:33:27;;;;;;;;;;;19.00;99.90;;;;;;5034755;28;20007;-79
2022/06/27 12:35:53;;;;;;;;;;;19.00;99.90;;;;;;5046196;28;20418;-78
2022/06/27 12:38:18;;;;;;;;;;;19.00;99.90;;;;;;5084192;28;19920;-77
2022/06/27 12:40:44;;;;;;;;;;;19.10;99.90;;;;;;5077719;28;19925;-78
2022/06/27 12:43:09;;;;;;;;;;;19.10;99.90;;;;;;5087297;28;19928;-78
2022/06/27 12:45:36;;;;;;;;;;;19.10;99.90;;;;;;5054429;28;19963;-78
2022/06/27 12:48:03;;;;;;;;;;;19.20;99.90;;;;;;5057864;28;19981;-78
2022/06/27 12:50:28;;;;;;;;;;;19.10;99.90;;;;;;5057495;28;19926;-78
2022/06/27 12:52:53;;;;;;;;;;;19.10;99.90;;;;;;5073135;28;19920;-78
2022/06/27 12:55:19;;;;;;;;;;;19.00;99.90;;;;;;5047318;28;19921;-79
2022/06/27 12:57:45;;;;;;;;;;;19.00;99.90;;;;;;5041574;28;19968;-78
2022/06/27 13:00:10;;;;;;;;;;;19.10;99.90;;;;;;5044624;28;19931;-78
2022/06/27 13:02:36;;;;;;;;;;;19.00;99.90;;;;;;5074589;28;19920;-79
2022/06/27 13:05:02;;;;;;;;;;;18.90;99.90;;;;;;5040769;28;19927;-76
2022/06/27 13:07:28;;;;;;;;;;;18.80;99.90;;;;;;5075101;28;19962;-76
2022/06/27 13:09:53;;;;;;;;;;;18.80;99.90;;;;;;5062151;28;20388;-76
2022/06/27 13:12:19;;;;;;;;;;;18.90;99.90;;;;;;5063809;28;19926;-76
2022/06/27 13:14:45;;;;;;;;;;;18.90;99.90;;;;;;5057498;28;19925;-76
2022/06/27 13:17:10;;;;;;;;;;;18.90;99.90;;;;;;5057393;28;19942;-76
2022/06/27 13:19:36;;;;;;;;;;;18.90;99.90;;;;;;5023707;28;19934;-76
2022/06/27 13:22:02;;;;;;;;;;;18.90;99.90;;;;;;5039166;28;19920;-77
2022/06/27 13:24:28;;;;;;;;;;;19.00;99.90;;;;;;5091818;28;19920;-77
2022/06/27 13:26:54;;;;;;;;;;;19.00;99.90;;;;;;5090568;28;19921;-77
2022/06/27 13:29:20;;;;;;;;;;;19.00;99.90;;;;;;5040963;28;19943;-78
2022/06/27 13:31:45;;;;;;;;;;;19.00;99.90;;;;;;5050879;28;19954;-78
2022/06/27 13:34:11;;;;;;;;;;;19.00;99.90;;;;;;5064501;28;20007;-78
2022/06/27 13:36:36;;;;;;;;;;;19.00;99.90;;;;;;5056748;28;20381;-78
2022/06/27 13:39:02;;;;;;;;;;;19.00;99.90;;;;;;5091243;28;19931;-78
2022/06/27 13:41:28;;;;;;;;;;;18.90;99.90;;;;;;5036604;28;20274;-78
2022/06/27 13:43:53;;;;;;;;;;;19.00;99.90;;;;;;5040281;28;19921;-78
2022/06/27 13:46:19;;;;;;;;;;;18.90;99.90;;;;;;5034258;28;19933;-78
2022/06/27 13:48:44;;;;;;;;;;;19.10;99.90;;;;;;5039771;28;20014;-78
2022/06/27 13:51:10;;;;;;;;;;;18.90;99.90;;;;;;5088058;28;20382;-79
2022/06/27 13:53:36;;;;;;;;;;;19.00;99.90;;;;;;5037374;28;20007;-78
2022/06/27 13:56:02;;;;;;;;;;;19.00;99.90;;;;;;5072965;28;20018;-78
2022/06/27 13:58:28;;;;;;;;;;;19.00;99.90;;;;;;5052337;28;19981;-78
2022/06/27 14:00:53;;;;;;;;;;;19.00;99.90;;;;;;5038681;28;19928;-78
2022/06/27 14:03:19;;;;;;;;;;;19.00;99.90;;;;;;5069029;28;19924;-78
2022/06/27 14:05:44;;;;;;;;;;;19.00;99.90;;;;;;5036442;28;20292;-78
2022/06/27 14:08:11;;;;;;;;;;;18.90;99.90;;;;;;5053404;28;19970;-78
2022/06/27 14:10:56;;;;;;;;;;;18.90;99.90;;;;;;5026502;28;20365;-78
2022/06/27 14:13:22;;;;;;;;;;;18.90;99.90;;;;;;5045841;28;19927;-78
2022/06/27 14:15:47;;;;;;;;;;;18.90;99.90;;;;;;5026646;28;20405;-78
2022/06/27 14:18:13;;;;;;;;;;;18.90;99.90;;;;;;5039437;28;19927;-78
2022/06/27 14:20:38;;;;;;;;;;;18.90;99.90;;;;;;5058916;28;19931;-78
2022/06/27 14:23:04;;;;;;;;;;;19.00;99.90;;;;;;5052669;28;19921;-76